sensor_id;sensor_type;location;lat;lon;timestamp;temperature;humidity
27224;DHT22;14965;50.660;13.226;2022-08-19T00:00:30;18.60;99.90
27224;DHT22;14965;50.660;13.226;2022-08-19T00:02:58;18.60;99.90
27224;DHT22;14965;50.660;13.226;2022-08-19T00:05:23;18.50;99.90
27224;DHT22;14965;50.660;13.226;2022-08-19T00:07:49;18.50;99.90
27224;DHT22;14965;50.660;13.226;2022-08-19T00:10:16;18.50;99.90
27224;DHT22;14965;50.660;13.226;2022-08-19T00:12:43;18.50;99.90
27224;DHT22;14965;50.660;13.226;2022-08-19T00:15:13;18.40;99.90
27224;DHT22;14965;50.660;13.226;2022-08-19T00:17:42;18.40;99.90
27224;DHT22;14965;50.660;13.226;2022-08-19T00:20:14;18.50;99.90
27224;DHT22;14965;50.660;13.226;2022-08-19T00:22:44;18.50;99.90
27224;DHT22;14965;50.660;13.226;2022-08-19T00:25:11;18.40;99.90
27224;DHT22;14965;50.660;13.226;2022-08-19T00:27:37;18.50;99.90
27224;DHT22;14965;50.660;13.226;2022-08-19T00:30:05;18.40;99.90
27224;DHT22;14965;50.660;13.226;2022-08-19T00:32:32;18.50;99.90
27224;DHT22;14965;50.660;13.226;2022-08-19T00:34:58;18.50;99.90
27224;DHT22;14965;50.660;13.226;2022-08-19T00:37:25;18.40;99.90
27224;DHT22;14965;50.660;13.226;2022-08-19T00:39:53;18.40;99.90
27224;DHT22;14965;50.660;13.226;2022-08-19T00:42:20;18.40;99.90
27224;DHT22;14965;50.660;13.226;2022-08-19T00:44:47;18.40;99.90
27224;DHT22;14965;50.660;13.226;2022-08-19T00:47:13;18.50;99.90
27224;DHT22;14965;50.660;13.226;2022-08-19T00:49:42;18.50;99.90
27224;DHT22;14965;50.660;13.226;2022-08-19T00:52:15;18.40;99.90
27224;DHT22;14965;50.660;13.226;2022-08-19T00:54:46;18.40;99.90
27224;DHT22;14965;50.660;13.226;2022-08-19T00:57:16;18.40;99.90
27224;DHT22;14965;50.660;13.226;2022-08-19T00:59:47;18.40;99.90
27224;DHT22;14965;50.660;13.226;2022-08-19T01:02:16;18.40;99.90
27224;DHT22;14965;50.660;13.226;2022-08-19T01:04:42;18.30;99.90
27224;DHT22;14965;50.660;13.226;2022-08-19T01:07:08;18.30;99.90
27224;DHT22;14965;50.660;13.226;2022-08-19T01:09:35;18.30;99.90
27224;DHT22;14965;50.660;13.226;2022-08-19T01:12:02;18.40;99.90
27224;DHT22;14965;50.660;13.226;2022-08-19T01:14:29;18.40;99.90
27224;DHT22;14965;50.660;13.226;2022-08-19T01:16:56;18.40;99.90
27224;DHT22;14965;50.660;13.226;2022-08-19T01:19:27;18.40;99.90
27224;DHT22;14965;50.660;13.226;2022-08-19T01:21:59;18.40;99.90
27224;DHT22;14965;50.660;13.226;2022-08-19T01:24:29;18.40;99.90
27224;DHT22;14965;50.660;13.226;2022-08-19T01:26:55;18.40;99.90
27224;DHT22;14965;50.660;13.226;2022-08-19T01:29:21;18.40;99.90
27224;DHT22;14965;50.660;13.226;2022-08-19T01:31:46;18.50;99.90
27224;DHT22;14965;50.660;13.226;2022-08-19T01:34:12;18.50;99.90
27224;DHT22;14965;50.660;13.226;2022-08-19T01:36:41;18.50;99.90
27224;DHT22;14965;50.660;13.226;2022-08-19T01:39:10;18.50;99.90
27224;DHT22;14965;50.660;13.226;2022-08-19T01:41:39;18.50;99.90
27224;DHT22;14965;50.660;13.226;2022-08-19T01:44:06;18.50;99.90
27224;DHT22;14965;50.660;13.226;2022-08-19T01:46:34;18.60;99.90
27224;DHT22;14965;50.660;13.226;2022-08-19T01:49:00;18.60;99.90
27224;DHT22;14965;50.660;13.226;2022-08-19T01:51:27;18.60;99.90
27224;DHT22;14965;50.660;13.226;2022-08-19T01:53:53;18.60;99.90
27224;DHT22;14965;50.660;13.226;2022-08-19T01:56:19;18.60;99.90
27224;DHT22;14965;50.660;13.226;2022-08-19T01:58:49;18.60;99.90
27224;DHT22;14965;50.660;13.226;2022-08-19T02:01:19;18.60;99.90
27224;DHT22;14965;50.660;13.226;2022-08-19T02:03:45;18.60;99.90
27224;DHT22;14965;50.660;13.226;2022-08-19T02:06:12;18.60;99.90
27224;DHT22;14965;50.660;13.226;2022-08-19T02:08:39;18.60;99.90
27224;DHT22;14965;50.660;13.226;2022-08-19T02:11:07;18.50;99.90
27224;DHT22;14965;50.660;13.226;2022-08-19T02:13:34;18.50;99.90
27224;DHT22;14965;50.660;13.226;2022-08-19T02:16:01;18.60;99.90
27224;DHT22;14965;50.660;13.226;2022-08-19T02:18:28;18.60;99.90
27224;DHT22;14965;50.660;13.226;2022-08-19T02:20:53;18.60;99.90
27224;DHT22;14965;50.660;13.226;2022-08-19T02:23:19;18.60;99.90
27224;DHT22;14965;50.660;13.226;2022-08-19T02:25:47;18.60;99.90
27224;DHT22;14965;50.660;13.226;2022-08-19T02:28:14;18.60;99.90
27224;DHT22;14965;50.660;13.226;2022-08-19T02:30:41;18.60;99.90
27224;DHT22;14965;50.660;13.226;2022-08-19T02:33:08;18.60;99.90
27224;DHT22;14965;50.660;13.226;2022-08-19T02:35:34;18.60;99.90
27224;DHT22;14965;50.660;13.226;2022-08-19T02:38:00;18.60;99.90
27224;DHT22;14965;50.660;13.226;2022-08-19T02:40:26;18.60;99.90
27224;DHT22;14965;50.660;13.226;2022-08-19T02:42:52;18.60;99.90
27224;DHT22;14965;50.660;13.226;2022-08-19T02:45:18;18.60;99.90
27224;DHT22;14965;50.660;13.226;2022-08-19T02:47:44;18.50;99.90
27224;DHT22;14965;50.660;13.226;2022-08-19T02:50:12;18.50;99.90
27224;DHT22;14965;50.660;13.226;2022-08-19T02:52:38;18.60;99.90
27224;DHT22;14965;50.660;13.226;2022-08-19T02:55:04;18.60;99.90
27224;DHT22;14965;50.660;13.226;2022-08-19T02:57:31;18.60;99.90
27224;DHT22;14965;50.660;13.226;2022-08-19T02:59:58;18.60;99.90
27224;DHT22;14965;50.660;13.226;2022-08-19T03:02:24;18.60;99.90
27224;DHT22;14965;50.660;13.226;2022-08-19T03:04:50;18.60;99.90
27224;DHT22;14965;50.660;13.226;2022-08-19T03:07:18;18.50;99.90
27224;DHT22;14965;50.660;13.226;2022-08-19T03:09:44;18.50;99.90
27224;DHT22;14965;50.660;13.226;2022-08-19T03:12:10;18.40;99.90
27224;DHT22;14965;50.660;13.226;2022-08-19T03:14:37;18.40;99.90
27224;DHT22;14965;50.660;13.226;2022-08-19T03:17:03;18.40;99.90
27224;DHT22;14965;50.660;13.226;2022-08-19T03:19:30;18.30;99.90
27224;DHT22;14965;50.660;13.226;2022-08-19T03:21:56;18.30;99.90
27224;DHT22;14965;50.660;13.226;2022-08-19T03:24:24;18.30;99.90
27224;DHT22;14965;50.660;13.226;2022-08-19T03:26:51;18.30;99.90
27224;DHT22;14965;50.660;13.226;2022-08-19T03:29:19;18.40;99.90
27224;DHT22;14965;50.660;13.226;2022-08-19T03:31:45;18.40;99.90
27224;DHT22;14965;50.660;13.226;2022-08-19T03:34:14;18.40;99.90
27224;DHT22;14965;50.660;13.226;2022-08-19T03:36:40;18.40;99.90
27224;DHT22;14965;50.660;13.226;2022-08-19T03:39:06;18.50;99.90
27224;DHT22;14965;50.660;13.226;2022-08-19T03:41:38;18.50;99.90
27224;DHT22;14965;50.660;13.226;2022-08-19T03:44:06;18.50;99.90
27224;DHT22;14965;50.660;13.226;2022-08-19T03:46:32;18.50;99.90
27224;DHT22;14965;50.660;13.226;2022-08-19T03:49:00;18.50;99.90
27224;DHT22;14965;50.660;13.226;2022-08-19T03:51:30;18.50;99.90
27224;DHT22;14965;50.660;13.226;2022-08-19T03:53:58;18.50;99.90
27224;DHT22;14965;50.660;13.226;2022-08-19T03:56:27;18.60;99.90
27224;DHT22;14965;50.660;13.226;2022-08-19T03:58:55;18.60;99.90
27224;DHT22;14965;50.660;13.226;2022-08-19T04:01:23;18.60;99.90
27224;DHT22;14965;50.660;13.226;2022-08-19T04:03:52;18.60;99.90
27224;DHT22;14965;50.660;13.226;2022-08-19T04:06:20;18.50;99.90
27224;DHT22;14965;50.660;13.226;2022-08-19T04:08:48;18.50;99.90
27224;DHT22;14965;50.660;13.226;2022-08-19T04:11:18;18.50;99.90
27224;DHT22;14965;50.660;13.226;2022-08-19T04:13:45;18.50;99.90
27224;DHT22;14965;50.660;13.226;2022-08-19T04:16:13;18.50;99.90
27224;DHT22;14965;50.660;13.226;2022-08-19T04:18:40;18.50;99.90
27224;DHT22;14965;50.660;13.226;2022-08-19T04:21:07;18.50;99.90
27224;DHT22;14965;50.660;13.226;2022-08-19T04:23:40;18.40;99.90
27224;DHT22;14965;50.660;13.226;2022-08-19T04:26:06;18.50;99.90
27224;DHT22;14965;50.660;13.226;2022-08-19T04:28:31;18.50;99.90
27224;DHT22;14965;50.660;13.226;2022-08-19T04:30:57;18.50;99.90
27224;DHT22;14965;50.660;13.226;2022-08-19T04:33:25;18.50;99.90
27224;DHT22;14965;50.660;13.226;2022-08-19T04:35:52;18.60;99.90
27224;DHT22;14965;50.660;13.226;2022-08-19T04:38:20;18.60;99.90
27224;DHT22;14965;50.660;13.226;2022-08-19T04:40:49;18.60;99.90
27224;DHT22;14965;50.660;13.226;2022-08-19T04:43:15;18.60;99.90
27224;DHT22;14965;50.660;13.226;2022-08-19T04:45:42;18.60;99.90
27224;DHT22;14965;50.660;13.226;2022-08-19T04:48:08;18.60;99.90
27224;DHT22;14965;50.660;13.226;2022-08-19T04:50:35;18.60;99.90
27224;DHT22;14965;50.660;13.226;2022-08-19T04:53:01;18.50;99.90
27224;DHT22;14965;50.660;13.226;2022-08-19T04:55:27;18.50;99.90
27224;DHT22;14965;50.660;13.226;2022-08-19T04:57:53;18.50;99.90
27224;DHT22;14965;50.660;13.226;2022-08-19T05:00:19;18.50;99.90
27224;DHT22;14965;50.660;13.226;2022-08-19T05:02:45;18.40;99.90
27224;DHT22;14965;50.660;13.226;2022-08-19T05:05:11;18.50;99.90
27224;DHT22;14965;50.660;13.226;2022-08-19T05:07:38;18.40;99.90
27224;DHT22;14965;50.660;13.226;2022-08-19T05:10:05;18.40;99.90
27224;DHT22;14965;50.660;13.226;2022-08-19T05:12:31;18.40;99.90
27224;DHT22;14965;50.660;13.226;2022-08-19T05:15:00;18.40;99.90
27224;DHT22;14965;50.660;13.226;2022-08-19T05:17:29;18.40;99.90
27224;DHT22;14965;50.660;13.226;2022-08-19T05:19:56;18.40;99.90
27224;DHT22;14965;50.660;13.226;2022-08-19T05:22:22;18.50;99.90
27224;DHT22;14965;50.660;13.226;2022-08-19T05:24:49;18.50;99.90
27224;DHT22;14965;50.660;13.226;2022-08-19T05:27:15;18.50;99.90
27224;DHT22;14965;50.660;13.226;2022-08-19T05:29:41;18.50;99.90
27224;DHT22;14965;50.660;13.226;2022-08-19T05:32:07;18.50;99.90
27224;DHT22;14965;50.660;13.226;2022-08-19T05:34:33;18.50;99.90
27224;DHT22;14965;50.660;13.226;2022-08-19T05:37:01;18.50;99.90
27224;DHT22;14965;50.660;13.226;2022-08-19T05:39:29;18.50;99.90
27224;DHT22;14965;50.660;13.226;2022-08-19T05:42:00;18.50;99.90
27224;DHT22;14965;50.660;13.226;2022-08-19T05:44:30;18.50;99.90
27224;DHT22;14965;50.660;13.226;2022-08-19T05:46:58;18.50;99.90
27224;DHT22;14965;50.660;13.226;2022-08-19T05:49:26;18.60;99.90
27224;DHT22;14965;50.660;13.226;2022-08-19T05:51:53;18.60;99.90
27224;DHT22;14965;50.660;13.226;2022-08-19T05:54:22;18.60;99.90
27224;DHT22;14965;50.660;13.226;2022-08-19T05:56:50;18.60;99.90
27224;DHT22;14965;50.660;13.226;2022-08-19T05:59:19;18.60;99.90
27224;DHT22;14965;50.660;13.226;2022-08-19T06:01:47;18.70;99.90
27224;DHT22;14965;50.660;13.226;2022-08-19T06:04:14;18.70;99.90
27224;DHT22;14965;50.660;13.226;2022-08-19T06:06:40;18.60;99.90
27224;DHT22;14965;50.660;13.226;2022-08-19T06:09:07;18.60;99.90
27224;DHT22;14965;50.660;13.226;2022-08-19T06:11:34;18.60;99.90
27224;DHT22;14965;50.660;13.226;2022-08-19T06:14:05;18.60;99.90
27224;DHT22;14965;50.660;13.226;2022-08-19T06:16:34;18.60;99.90
27224;DHT22;14965;50.660;13.226;2022-08-19T06:19:03;18.60;99.90
27224;DHT22;14965;50.660;13.226;2022-08-19T06:21:31;18.60;99.90
27224;DHT22;14965;50.660;13.226;2022-08-19T06:23:58;18.50;99.90
27224;DHT22;14965;50.660;13.226;2022-08-19T06:26:24;18.50;99.90
27224;DHT22;14965;50.660;13.226;2022-08-19T06:28:51;18.40;99.90
27224;DHT22;14965;50.660;13.226;2022-08-19T06:31:19;18.40;99.90
27224;DHT22;14965;50.660;13.226;2022-08-19T06:33:49;18.30;99.90
27224;DHT22;14965;50.660;13.226;2022-08-19T06:36:20;18.30;99.90
27224;DHT22;14965;50.660;13.226;2022-08-19T06:38:47;18.30;99.90
27224;DHT22;14965;50.660;13.226;2022-08-19T06:41:13;18.30;99.90
27224;DHT22;14965;50.660;13.226;2022-08-19T06:43:39;18.40;99.90
27224;DHT22;14965;50.660;13.226;2022-08-19T06:46:10;18.30;99.90
27224;DHT22;14965;50.660;13.226;2022-08-19T06:48:37;18.40;99.90
27224;DHT22;14965;50.660;13.226;2022-08-19T06:51:05;18.40;99.90
27224;DHT22;14965;50.660;13.226;2022-08-19T06:53:31;18.50;99.90
27224;DHT22;14965;50.660;13.226;2022-08-19T06:55:57;18.50;99.90
27224;DHT22;14965;50.660;13.226;2022-08-19T06:58:23;18.50;99.90
27224;DHT22;14965;50.660;13.226;2022-08-19T07:00:48;18.60;99.90
27224;DHT22;14965;50.660;13.226;2022-08-19T07:03:15;18.60;99.90
27224;DHT22;14965;50.660;13.226;2022-08-19T07:05:41;18.70;99.90
27224;DHT22;14965;50.660;13.226;2022-08-19T07:08:09;18.70;99.90
27224;DHT22;14965;50.660;13.226;2022-08-19T07:10:35;18.70;99.90
27224;DHT22;14965;50.660;13.226;2022-08-19T07:13:01;18.80;99.90
27224;DHT22;14965;50.660;13.226;2022-08-19T07:15:27;18.80;99.90
27224;DHT22;14965;50.660;13.226;2022-08-19T07:17:53;18.80;99.90
27224;DHT22;14965;50.660;13.226;2022-08-19T07:20:20;18.90;99.90
27224;DHT22;14965;50.660;13.226;2022-08-19T07:22:46;18.90;99.90
27224;DHT22;14965;50.660;13.226;2022-08-19T07:25:14;18.90;99.90
27224;DHT22;14965;50.660;13.226;2022-08-19T07:27:40;18.90;99.90
27224;DHT22;14965;50.660;13.226;2022-08-19T07:30:07;18.90;99.90
27224;DHT22;14965;50.660;13.226;2022-08-19T07:32:34;18.90;99.90
27224;DHT22;14965;50.660;13.226;2022-08-19T07:34:59;18.90;99.90
27224;DHT22;14965;50.660;13.226;2022-08-19T07:37:25;18.90;99.90
27224;DHT22;14965;50.660;13.226;2022-08-19T07:39:51;18.90;99.90
27224;DHT22;14965;50.660;13.226;2022-08-19T07:42:18;18.90;99.90
27224;DHT22;14965;50.660;13.226;2022-08-19T07:44:44;18.90;99.90
27224;DHT22;14965;50.660;13.226;2022-08-19T07:47:10;18.90;99.90
27224;DHT22;14965;50.660;13.226;2022-08-19T07:49:36;18.90;99.90
27224;DHT22;14965;50.660;13.226;2022-08-19T07:52:05;18.90;99.90
27224;DHT22;14965;50.660;13.226;2022-08-19T07:54:36;19.00;99.90
27224;DHT22;14965;50.660;13.226;2022-08-19T07:57:04;19.10;99.90
27224;DHT22;14965;50.660;13.226;2022-08-19T07:59:32;19.30;99.90
27224;DHT22;14965;50.660;13.226;2022-08-19T08:01:58;19.30;99.90
27224;DHT22;14965;50.660;13.226;2022-08-19T08:04:24;19.30;99.90
27224;DHT22;14965;50.660;13.226;2022-08-19T08:06:50;19.50;99.90
27224;DHT22;14965;50.660;13.226;2022-08-19T08:09:20;19.60;99.90
27224;DHT22;14965;50.660;13.226;2022-08-19T08:11:51;19.70;99.90
27224;DHT22;14965;50.660;13.226;2022-08-19T08:14:21;19.80;99.90
27224;DHT22;14965;50.660;13.226;2022-08-19T08:16:50;19.80;99.90
27224;DHT22;14965;50.660;13.226;2022-08-19T08:19:18;19.80;99.90
27224;DHT22;14965;50.660;13.226;2022-08-19T08:21:47;19.80;99.90
27224;DHT22;14965;50.660;13.226;2022-08-19T08:24:13;19.80;99.90
27224;DHT22;14965;50.660;13.226;2022-08-19T08:26:40;19.70;99.90
27224;DHT22;14965;50.660;13.226;2022-08-19T08:29:06;19.70;99.90
27224;DHT22;14965;50.660;13.226;2022-08-19T08:31:32;19.70;99.90
27224;DHT22;14965;50.660;13.226;2022-08-19T08:33:59;19.70;99.90
27224;DHT22;14965;50.660;13.226;2022-08-19T08:36:26;19.70;99.90
27224;DHT22;14965;50.660;13.226;2022-08-19T08:38:52;19.60;99.90
27224;DHT22;14965;50.660;13.226;2022-08-19T08:41:22;19.60;99.90
27224;DHT22;14965;50.660;13.226;2022-08-19T08:43:55;19.70;99.90
27224;DHT22;14965;50.660;13.226;2022-08-19T08:46:27;19.80;99.90
27224;DHT22;14965;50.660;13.226;2022-08-19T08:49:04;19.90;99.90
27224;DHT22;14965;50.660;13.226;2022-08-19T08:51:44;19.90;99.90
27224;DHT22;14965;50.660;13.226;2022-08-19T08:54:14;19.90;99.90
27224;DHT22;14965;50.660;13.226;2022-08-19T08:56:46;19.80;99.90
27224;DHT22;14965;50.660;13.226;2022-08-19T08:59:19;19.80;99.90
27224;DHT22;14965;50.660;13.226;2022-08-19T09:01:49;19.70;99.90
27224;DHT22;14965;50.660;13.226;2022-08-19T09:04:16;19.60;99.90
27224;DHT22;14965;50.660;13.226;2022-08-19T09:06:49;19.50;99.90
27224;DHT22;14965;50.660;13.226;2022-08-19T09:09:25;19.60;99.90
27224;DHT22;14965;50.660;13.226;2022-08-19T09:12:03;19.60;99.90
27224;DHT22;14965;50.660;13.226;2022-08-19T09:14:45;19.60;99.90
27224;DHT22;14965;50.660;13.226;2022-08-19T09:17:14;19.60;99.90
27224;DHT22;14965;50.660;13.226;2022-08-19T09:19:52;19.60;99.90
27224;DHT22;14965;50.660;13.226;2022-08-19T09:22:21;19.50;99.90
27224;DHT22;14965;50.660;13.226;2022-08-19T09:24:48;19.50;99.90
27224;DHT22;14965;50.660;13.226;2022-08-19T09:27:14;19.60;99.90
27224;DHT22;14965;50.660;13.226;2022-08-19T09:29:40;19.50;99.90
27224;DHT22;14965;50.660;13.226;2022-08-19T09:32:06;19.60;99.90
27224;DHT22;14965;50.660;13.226;2022-08-19T09:34:32;19.70;99.90
27224;DHT22;14965;50.660;13.226;2022-08-19T09:36:59;19.70;99.90
27224;DHT22;14965;50.660;13.226;2022-08-19T09:39:25;19.70;99.90
27224;DHT22;14965;50.660;13.226;2022-08-19T09:41:51;19.60;99.90
27224;DHT22;14965;50.660;13.226;2022-08-19T09:44:17;19.60;99.90
27224;DHT22;14965;50.660;13.226;2022-08-19T09:46:44;19.40;99.90
27224;DHT22;14965;50.660;13.226;2022-08-19T09:49:09;19.40;99.90
27224;DHT22;14965;50.660;13.226;2022-08-19T09:51:35;19.40;99.90
27224;DHT22;14965;50.660;13.226;2022-08-19T09:54:03;19.40;99.90
27224;DHT22;14965;50.660;13.226;2022-08-19T09:56:30;19.40;99.90
27224;DHT22;14965;50.660;13.226;2022-08-19T09:58:58;19.40;99.90
27224;DHT22;14965;50.660;13.226;2022-08-19T10:01:26;19.40;99.90
27224;DHT22;14965;50.660;13.226;2022-08-19T10:03:54;19.50;99.90
27224;DHT22;14965;50.660;13.226;2022-08-19T10:06:23;19.50;99.90
27224;DHT22;14965;50.660;13.226;2022-08-19T10:08:51;19.50;99.90
27224;DHT22;14965;50.660;13.226;2022-08-19T10:11:19;19.30;99.90
27224;DHT22;14965;50.660;13.226;2022-08-19T10:13:47;19.30;99.90
27224;DHT22;14965;50.660;13.226;2022-08-19T10:16:15;19.30;99.90
27224;DHT22;14965;50.660;13.226;2022-08-19T10:18:43;19.30;99.90
27224;DHT22;14965;50.660;13.226;2022-08-19T10:21:12;19.40;99.90
27224;DHT22;14965;50.660;13.226;2022-08-19T10:23:41;19.50;99.90
27224;DHT22;14965;50.660;13.226;2022-08-19T10:26:09;19.50;99.90
27224;DHT22;14965;50.660;13.226;2022-08-19T10:28:37;19.40;99.90
27224;DHT22;14965;50.660;13.226;2022-08-19T10:31:04;19.40;99.90
27224;DHT22;14965;50.660;13.226;2022-08-19T10:33:31;19.40;99.90
27224;DHT22;14965;50.660;13.226;2022-08-19T10:35:59;19.40;99.90
27224;DHT22;14965;50.660;13.226;2022-08-19T10:38:25;19.30;99.90
27224;DHT22;14965;50.660;13.226;2022-08-19T10:40:52;19.40;99.90
27224;DHT22;14965;50.660;13.226;2022-08-19T10:43:18;19.40;99.90
27224;DHT22;14965;50.660;13.226;2022-08-19T10:45:51;19.50;99.90
27224;DHT22;14965;50.660;13.226;2022-08-19T10:48:17;19.60;99.90
27224;DHT22;14965;50.660;13.226;2022-08-19T10:50:43;19.70;99.90
27224;DHT22;14965;50.660;13.226;2022-08-19T10:53:09;19.90;99.90
27224;DHT22;14965;50.660;13.226;2022-08-19T10:55:35;20.00;99.90
27224;DHT22;14965;50.660;13.226;2022-08-19T10:58:01;20.20;99.90
27224;DHT22;14965;50.660;13.226;2022-08-19T11:00:27;20.40;99.90
27224;DHT22;14965;50.660;13.226;2022-08-19T11:02:54;20.50;99.90
27224;DHT22;14965;50.660;13.226;2022-08-19T11:05:20;20.60;99.90
27224;DHT22;14965;50.660;13.226;2022-08-19T11:07:46;20.70;99.90
27224;DHT22;14965;50.660;13.226;2022-08-19T11:10:13;20.60;99.90
27224;DHT22;14965;50.660;13.226;2022-08-19T11:12:40;20.40;99.90
27224;DHT22;14965;50.660;13.226;2022-08-19T11:15:07;20.30;99.90
27224;DHT22;14965;50.660;13.226;2022-08-19T11:17:35;20.10;99.90
27224;DHT22;14965;50.660;13.226;2022-08-19T11:20:03;19.90;99.90
27224;DHT22;14965;50.660;13.226;2022-08-19T11:22:29;19.80;99.90
27224;DHT22;14965;50.660;13.226;2022-08-19T11:24:55;19.60;99.90
27224;DHT22;14965;50.660;13.226;2022-08-19T11:27:22;19.50;99.90
27224;DHT22;14965;50.660;13.226;2022-08-19T11:29:53;19.40;99.90
27224;DHT22;14965;50.660;13.226;2022-08-19T11:32:21;19.30;99.90
27224;DHT22;14965;50.660;13.226;2022-08-19T11:34:47;19.30;99.90
27224;DHT22;14965;50.660;13.226;2022-08-19T11:37:15;19.40;99.90
27224;DHT22;14965;50.660;13.226;2022-08-19T11:39:41;19.30;99.90
27224;DHT22;14965;50.660;13.226;2022-08-19T11:42:07;19.30;99.90
27224;DHT22;14965;50.660;13.226;2022-08-19T11:44:33;19.30;99.90
27224;DHT22;14965;50.660;13.226;2022-08-19T11:46:59;19.30;99.90
27224;DHT22;14965;50.660;13.226;2022-08-19T11:49:25;19.30;99.90
27224;DHT22;14965;50.660;13.226;2022-08-19T11:51:51;19.40;99.90
27224;DHT22;14965;50.660;13.226;2022-08-19T11:54:18;19.40;99.90
27224;DHT22;14965;50.660;13.226;2022-08-19T11:56:45;19.40;99.90
27224;DHT22;14965;50.660;13.226;2022-08-19T11:59:11;19.40;99.90
27224;DHT22;14965;50.660;13.226;2022-08-19T12:01:37;19.50;99.90
27224;DHT22;14965;50.660;13.226;2022-08-19T12:04:03;19.40;99.90
27224;DHT22;14965;50.660;13.226;2022-08-19T12:06:31;19.40;99.90
27224;DHT22;14965;50.660;13.226;2022-08-19T12:08:59;19.40;99.90
27224;DHT22;14965;50.660;13.226;2022-08-19T12:11:28;19.40;99.90
27224;DHT22;14965;50.660;13.226;2022-08-19T12:13:54;19.40;99.90
27224;DHT22;14965;50.660;13.226;2022-08-19T12:16:22;19.40;99.90
27224;DHT22;14965;50.660;13.226;2022-08-19T12:18:50;19.40;99.90
27224;DHT22;14965;50.660;13.226;2022-08-19T12:21:19;19.30;99.90
27224;DHT22;14965;50.660;13.226;2022-08-19T12:23:48;19.30;99.90
27224;DHT22;14965;50.660;13.226;2022-08-19T12:26:16;19.20;99.90
27224;DHT22;14965;50.660;13.226;2022-08-19T12:28:44;19.10;99.90
27224;DHT22;14965;50.660;13.226;2022-08-19T12:31:10;19.10;99.90
27224;DHT22;14965;50.660;13.226;2022-08-19T12:33:36;19.10;99.90
27224;DHT22;14965;50.660;13.226;2022-08-19T12:36:04;19.10;99.90
27224;DHT22;14965;50.660;13.226;2022-08-19T12:38:33;19.10;99.90
27224;DHT22;14965;50.660;13.226;2022-08-19T12:40:59;19.10;99.90
27224;DHT22;14965;50.660;13.226;2022-08-19T12:43:26;19.10;99.90
27224;DHT22;14965;50.660;13.226;2022-08-19T12:45:53;19.10;99.90
27224;DHT22;14965;50.660;13.226;2022-08-19T12:48:19;19.10;99.90
27224;DHT22;14965;50.660;13.226;2022-08-19T12:50:45;19.10;99.90
27224;DHT22;14965;50.660;13.226;2022-08-19T12:53:11;19.10;99.90
27224;DHT22;14965;50.660;13.226;2022-08-19T12:55:37;19.20;99.90
27224;DHT22;14965;50.660;13.226;2022-08-19T12:58:03;19.20;99.90
27224;DHT22;14965;50.660;13.226;2022-08-19T13:00:29;19.30;99.90
27224;DHT22;14965;50.660;13.226;2022-08-19T13:02:58;19.30;99.90
27224;DHT22;14965;50.660;13.226;2022-08-19T13:05:26;19.40;99.90
27224;DHT22;14965;50.660;13.226;2022-08-19T13:07:56;19.40;99.90
27224;DHT22;14965;50.660;13.226;2022-08-19T13:10:25;19.40;99.90
27224;DHT22;14965;50.660;13.226;2022-08-19T13:12:54;19.50;99.90
27224;DHT22;14965;50.660;13.226;2022-08-19T13:15:21;19.50;99.90
27224;DHT22;14965;50.660;13.226;2022-08-19T13:17:49;19.50;99.90
27224;DHT22;14965;50.660;13.226;2022-08-19T13:20:19;19.50;99.90
27224;DHT22;14965;50.660;13.226;2022-08-19T13:22:46;19.50;99.90
27224;DHT22;14965;50.660;13.226;2022-08-19T13:25:13;19.50;99.90
27224;DHT22;14965;50.660;13.226;2022-08-19T13:27:40;19.60;99.90
27224;DHT22;14965;50.660;13.226;2022-08-19T13:30:09;19.70;99.90
27224;DHT22;14965;50.660;13.226;2022-08-19T13:32:37;19.60;99.90
27224;DHT22;14965;50.660;13.226;2022-08-19T13:35:03;19.60;99.90
27224;DHT22;14965;50.660;13.226;2022-08-19T13:37:30;19.50;99.90
27224;DHT22;14965;50.660;13.226;2022-08-19T13:39:56;19.50;99.90
27224;DHT22;14965;50.660;13.226;2022-08-19T13:42:22;19.50;99.90
27224;DHT22;14965;50.660;13.226;2022-08-19T13:44:48;19.30;99.90
27224;DHT22;14965;50.660;13.226;2022-08-19T13:47:14;19.30;99.90
27224;DHT22;14965;50.660;13.226;2022-08-19T13:49:39;19.10;99.90
27224;DHT22;14965;50.660;13.226;2022-08-19T13:52:05;19.10;99.90
27224;DHT22;14965;50.660;13.226;2022-08-19T13:54:33;19.00;99.90
27224;DHT22;14965;50.660;13.226;2022-08-19T13:56:58;19.00;99.90
27224;DHT22;14965;50.660;13.226;2022-08-19T13:59:24;19.00;99.90
27224;DHT22;14965;50.660;13.226;2022-08-19T14:01:50;18.90;99.90
27224;DHT22;14965;50.660;13.226;2022-08-19T14:04:17;18.90;99.90
27224;DHT22;14965;50.660;13.226;2022-08-19T14:06:43;19.00;99.90
27224;DHT22;14965;50.660;13.226;2022-08-19T14:09:09;19.00;99.90
27224;DHT22;14965;50.660;13.226;2022-08-19T14:11:36;18.80;99.90
27224;DHT22;14965;50.660;13.226;2022-08-19T14:14:02;18.80;99.90
27224;DHT22;14965;50.660;13.226;2022-08-19T14:16:28;18.80;99.90
27224;DHT22;14965;50.660;13.226;2022-08-19T14:18:53;18.80;99.90
27224;DHT22;14965;50.660;13.226;2022-08-19T14:21:21;18.80;99.90
27224;DHT22;14965;50.660;13.226;2022-08-19T14:23:48;18.80;99.90
27224;DHT22;14965;50.660;13.226;2022-08-19T14:26:16;18.80;99.90
27224;DHT22;14965;50.660;13.226;2022-08-19T14:28:45;18.90;99.90
27224;DHT22;14965;50.660;13.226;2022-08-19T14:31:12;18.90;99.90
27224;DHT22;14965;50.660;13.226;2022-08-19T14:33:39;18.80;99.90
27224;DHT22;14965;50.660;13.226;2022-08-19T14:36:05;18.80;99.90
27224;DHT22;14965;50.660;13.226;2022-08-19T14:38:32;18.80;99.90
27224;DHT22;14965;50.660;13.226;2022-08-19T14:41:06;18.70;99.90
27224;DHT22;14965;50.660;13.226;2022-08-19T14:43:38;18.70;99.90
27224;DHT22;14965;50.660;13.226;2022-08-19T14:46:06;18.60;99.90
27224;DHT22;14965;50.660;13.226;2022-08-19T14:48:32;18.50;99.90
27224;DHT22;14965;50.660;13.226;2022-08-19T14:50:58;18.50;99.90
27224;DHT22;14965;50.660;13.226;2022-08-19T14:53:23;18.50;99.90
27224;DHT22;14965;50.660;13.226;2022-08-19T14:55:49;18.30;99.90
27224;DHT22;14965;50.660;13.226;2022-08-19T14:58:15;18.30;99.90
27224;DHT22;14965;50.660;13.226;2022-08-19T15:00:41;18.30;99.90
27224;DHT22;14965;50.660;13.226;2022-08-19T15:03:08;18.20;99.90
27224;DHT22;14965;50.660;13.226;2022-08-19T15:05:34;18.30;99.90
27224;DHT22;14965;50.660;13.226;2022-08-19T15:08:03;18.30;99.90
27224;DHT22;14965;50.660;13.226;2022-08-19T15:10:29;18.30;99.90
27224;DHT22;14965;50.660;13.226;2022-08-19T15:12:55;18.20;99.90
27224;DHT22;14965;50.660;13.226;2022-08-19T15:15:21;18.20;99.90